sensor_id;sensor_type;location;lat;lon;timestamp;P1;P4;P2;P0;N10;N4;N25;N1;N05;TS
78314;SPS30;68596;52.080;4.662;2023-07-13T00:01:31;7.43;6.74;5.47;3.67;29.53;29.46;29.14;27.43;21.37;0.66
78314;SPS30;68596;52.080;4.662;2023-07-13T00:04:16;6.40;5.83;4.79;3.30;26.53;26.46;26.21;24.80;19.52;0.65
78314;SPS30;68596;52.080;4.662;2023-07-13T00:07:02;6.94;6.31;5.17;3.54;28.46;28.39;28.11;26.57;20.86;0.67
78314;SPS30;68596;52.080;4.662;2023-07-13T00:09:46;6.82;6.21;5.09;3.49;28.06;27.99;27.71;26.20;20.58;0.67
78314;SPS30;68596;52.080;4.662;2023-07-13T00:12:32;6.79;6.15;4.98;3.32;26.73;26.66;26.37;24.79;19.27;0.70
78314;SPS30;68596;52.080;4.662;2023-07-13T00:15:20;7.02;6.36;5.16;3.45;27.77;27.70;27.40;25.78;20.06;0.69
78314;SPS30;68596;52.080;4.662;2023-07-13T00:18:09;7.33;6.67;5.48;3.76;30.24;30.17;29.87;28.25;22.21;0.68
78314;SPS30;68596;52.080;4.662;2023-07-13T00:20:53;7.07;6.40;5.19;3.46;27.87;27.80;27.50;25.86;20.10;0.68
78314;SPS30;68596;52.080;4.662;2023-07-13T00:23:38;7.33;6.63;5.36;3.56;28.62;28.54;28.23;26.51;20.55;0.69
78314;SPS30;68596;52.080;4.662;2023-07-13T00:26:24;7.43;6.67;5.29;3.36;27.05;26.96;26.62;24.77;18.84;0.72
78314;SPS30;68596;52.080;4.662;2023-07-13T00:29:08;7.90;7.11;5.67;3.65;29.40;29.32;28.96;27.03;20.69;0.71
78314;SPS30;68596;52.080;4.662;2023-07-13T00:31:52;6.49;5.90;4.84;3.31;26.61;26.55;26.28;24.84;19.50;0.67
78314;SPS30;68596;52.080;4.662;2023-07-13T00:34:37;6.59;6.00;4.94;3.40;27.37;27.30;27.04;25.59;20.15;0.66
78314;SPS30;68596;52.080;4.662;2023-07-13T00:37:22;6.79;6.16;5.02;3.39;27.24;27.17;26.88;25.34;19.78;0.67
78314;SPS30;68596;52.080;4.662;2023-07-13T00:40:06;6.52;5.94;4.89;3.38;27.19;27.12;26.86;25.44;20.05;0.66
78314;SPS30;68596;52.080;4.662;2023-07-13T00:42:52;6.47;5.89;4.85;3.35;26.89;26.83;26.57;25.15;19.81;0.67
78314;SPS30;68596;52.080;4.662;2023-07-13T00:48:23;6.13;5.60;4.63;3.23;25.94;25.88;25.64;24.32;19.23;0.66
78314;SPS30;68596;52.080;4.662;2023-07-13T00:51:14;5.58;5.10;4.22;2.95;23.69;23.64;23.42;22.22;17.59;0.67
78314;SPS30;68596;52.080;4.662;2023-07-13T00:54:04;6.28;5.69;4.63;3.11;24.99;24.92;24.66;23.21;18.09;0.69
78314;SPS30;68596;52.080;4.662;2023-07-13T00:56:53;6.32;5.73;4.67;3.16;25.44;25.37;25.11;23.67;18.50;0.70
78314;SPS30;68596;52.080;4.662;2023-07-13T00:59:45;6.67;6.02;4.84;3.17;25.54;25.46;25.17;23.58;18.18;0.71
78314;SPS30;68596;52.080;4.662;2023-07-13T01:02:33;6.68;6.03;4.85;3.19;25.67;25.60;25.31;23.72;18.32;0.70
78314;SPS30;68596;52.080;4.662;2023-07-13T01:05:21;6.35;5.72;4.60;3.01;24.20;24.13;23.86;22.34;17.21;0.70
78314;SPS30;68596;52.080;4.662;2023-07-13T01:08:06;6.25;5.66;4.58;3.05;24.54;24.47;24.20;22.75;17.66;0.69
78314;SPS30;68596;52.080;4.662;2023-07-13T01:10:55;6.19;5.61;4.55;3.04;24.50;24.43;24.17;22.74;17.69;0.69
78314;SPS30;68596;52.080;4.662;2023-07-13T01:13:41;5.78;5.25;4.31;2.95;23.70;23.64;23.40;22.12;17.37;0.68
78314;SPS30;68596;52.080;4.662;2023-07-13T01:16:26;5.58;5.07;4.15;2.83;22.79;22.73;22.50;21.25;16.67;0.67
78314;SPS30;68596;52.080;4.662;2023-07-13T01:19:23;5.73;5.19;4.21;2.82;22.66;22.60;22.35;21.03;16.36;0.69
78314;SPS30;68596;52.080;4.662;2023-07-13T01:22:19;6.22;5.62;4.53;2.99;24.06;24.00;23.72;22.25;17.21;0.70
78314;SPS30;68596;52.080;4.662;2023-07-13T01:25:08;5.97;5.38;4.30;2.79;22.49;22.42;22.15;20.71;15.90;0.70
78314;SPS30;68596;52.080;4.662;2023-07-13T01:27:52;6.38;5.72;4.52;2.84;22.92;22.85;22.55;20.94;15.87;0.72
78314;SPS30;68596;52.080;4.662;2023-07-13T01:30:37;6.35;5.68;4.46;2.78;22.39;22.31;22.01;20.39;15.36;0.73
78314;SPS30;68596;52.080;4.662;2023-07-13T01:33:24;6.24;5.57;4.36;2.68;21.64;21.57;21.27;19.64;14.72;0.73
78314;SPS30;68596;52.080;4.662;2023-07-13T01:36:09;6.70;6.03;4.81;3.10;24.94;24.87;24.57;22.93;17.55;0.69
78314;SPS30;68596;52.080;4.662;2023-07-13T01:38:55;5.74;5.18;4.17;2.74;22.07;22.01;21.76;20.40;15.76;0.70
78314;SPS30;68596;52.080;4.662;2023-07-13T01:41:39;5.81;5.27;4.28;2.88;23.17;23.11;22.87;21.54;16.79;0.68
78314;SPS30;68596;52.080;4.662;2023-07-13T01:44:23;5.98;5.42;4.40;2.95;23.70;23.64;23.39;22.01;17.13;0.68
78314;SPS30;68596;52.080;4.662;2023-07-13T01:47:07;5.46;4.95;4.03;2.73;21.93;21.87;21.64;20.40;15.94;0.70
78314;SPS30;68596;52.080;4.662;2023-07-13T01:49:51;5.97;5.39;4.35;2.87;23.11;23.05;22.79;21.38;16.54;0.70
78314;SPS30;68596;52.080;4.662;2023-07-13T01:52:36;5.32;4.84;3.97;2.72;21.85;21.80;21.58;20.40;16.03;0.66
78314;SPS30;68596;52.080;4.662;2023-07-13T01:55:20;5.84;5.29;4.30;2.88;23.19;23.13;22.88;21.53;16.77;0.67
78314;SPS30;68596;52.080;4.662;2023-07-13T01:58:05;5.78;5.23;4.21;2.79;22.42;22.35;22.10;20.74;16.05;0.67
78314;SPS30;68596;52.080;4.662;2023-07-13T02:00:51;5.12;4.68;3.87;2.71;21.78;21.73;21.53;20.44;16.19;0.63
78314;SPS30;68596;52.080;4.662;2023-07-13T02:03:35;5.09;4.64;3.84;2.68;21.54;21.49;21.29;20.20;15.98;0.64
78314;SPS30;68596;52.080;4.662;2023-07-13T02:06:19;4.69;4.27;3.50;2.40;19.32;19.27;19.08;18.04;14.18;0.67
78314;SPS30;68596;52.080;4.662;2023-07-13T02:09:03;4.38;4.00;3.31;2.32;18.61;18.57;18.40;17.46;13.83;0.67
78314;SPS30;68596;52.080;4.662;2023-07-13T02:11:47;4.73;4.28;3.45;2.28;18.33;18.28;18.07;16.96;13.12;0.71
78314;SPS30;68596;52.080;4.662;2023-07-13T02:14:32;4.31;3.90;3.15;2.09;16.78;16.74;16.55;15.54;12.04;0.70
78314;SPS30;68596;52.080;4.662;2023-07-13T02:17:16;3.85;3.49;2.83;1.90;15.26;15.22;15.06;14.17;11.03;0.69
78314;SPS30;68596;52.080;4.662;2023-07-13T02:20:00;3.52;3.20;2.63;1.81;14.55;14.51;14.37;13.60;10.70;0.66
78314;SPS30;68596;52.080;4.662;2023-07-13T02:22:46;3.37;3.07;2.53;1.75;14.10;14.06;13.93;13.19;10.41;0.66
78314;SPS30;68596;52.080;4.662;2023-07-13T02:25:30;2.54;2.32;1.94;1.37;11.02;10.99;10.90;10.37;8.25;0.64
78314;SPS30;68596;52.080;4.662;2023-07-13T02:28:14;2.77;2.54;2.12;1.51;12.13;12.11;12.00;11.43;9.11;0.64
78314;SPS30;68596;52.080;4.662;2023-07-13T02:31:06;2.45;2.26;1.92;1.41;11.31;11.29;11.20;10.73;8.65;0.62
78314;SPS30;68596;52.080;4.662;2023-07-13T02:33:54;2.65;2.44;2.07;1.52;12.23;12.21;12.11;11.61;9.35;0.63
78314;SPS30;68596;52.080;4.662;2023-07-13T02:36:38;2.26;2.10;1.80;1.34;10.77;10.75;10.68;10.26;8.32;0.63
78314;SPS30;68596;52.080;4.662;2023-07-13T02:39:22;2.53;2.34;1.99;1.47;11.79;11.77;11.68;11.20;9.04;0.63
78314;SPS30;68596;52.080;4.662;2023-07-13T02:42:06;2.16;2.01;1.74;1.32;10.60;10.58;10.51;10.13;8.26;0.61
78314;SPS30;68596;52.080;4.662;2023-07-13T02:44:50;2.05;1.93;1.71;1.36;10.90;10.88;10.83;10.52;8.70;0.59
78314;SPS30;68596;52.080;4.662;2023-07-13T02:47:35;2.48;2.32;2.05;1.61;12.88;12.86;12.79;12.39;10.21;0.59
78314;SPS30;68596;52.080;4.662;2023-07-13T02:50:19;2.59;2.42;2.11;1.63;13.07;13.05;12.97;12.54;10.28;0.60
78314;SPS30;68596;52.080;4.662;2023-07-13T02:53:04;2.47;2.31;2.02;1.57;12.63;12.61;12.53;12.13;9.97;0.60
78314;SPS30;68596;52.080;4.662;2023-07-13T02:55:48;2.86;2.68;2.36;1.85;14.79;14.77;14.69;14.23;11.72;0.59
78314;SPS30;68596;52.080;4.662;2023-07-13T02:58:32;2.77;2.59;2.25;1.73;13.88;13.85;13.77;13.30;10.89;0.60
78314;SPS30;68596;52.080;4.662;2023-07-13T03:01:16;3.33;3.09;2.66;2.01;16.13;16.10;15.99;15.40;12.53;0.62
78314;SPS30;68596;52.080;4.662;2023-07-13T03:04:02;3.34;3.11;2.70;2.05;16.48;16.45;16.35;15.77;12.87;0.61
78314;SPS30;68596;52.080;4.662;2023-07-13T03:06:46;3.56;3.28;2.76;2.01;16.13;16.10;15.97;15.27;12.26;0.64
78314;SPS30;68596;52.080;4.662;2023-07-13T03:09:31;3.47;3.20;2.70;1.97;15.79;15.76;15.64;14.96;12.02;0.64
78314;SPS30;68596;52.080;4.662;2023-07-13T03:12:17;3.58;3.29;2.77;2.00;16.07;16.04;15.91;15.20;12.18;0.66
78314;SPS30;68596;52.080;4.662;2023-07-13T03:15:00;4.10;3.76;3.14;2.24;18.02;17.98;17.82;16.98;13.54;0.67
78314;SPS30;68596;52.080;4.662;2023-07-13T03:17:45;4.54;4.16;3.46;2.44;19.58;19.53;19.36;18.40;14.61;0.67
78314;SPS30;68596;52.080;4.662;2023-07-13T03:20:32;4.67;4.25;3.46;2.35;18.89;18.85;18.65;17.60;13.76;0.69
78314;SPS30;68596;52.080;4.662;2023-07-13T03:23:20;4.47;4.10;3.42;2.44;19.56;19.52;19.35;18.43;14.68;0.66
78314;SPS30;68596;52.080;4.662;2023-07-13T03:26:10;4.94;4.52;3.76;2.66;21.35;21.30;21.11;20.07;15.95;0.67
78314;SPS30;68596;52.080;4.662;2023-07-13T03:28:56;4.79;4.37;3.61;2.52;20.25;20.20;20.01;18.98;15.01;0.68
78314;SPS30;68596;52.080;4.662;2023-07-13T03:31:40;4.45;4.10;3.46;2.51;20.17;20.13;19.97;19.10;15.33;0.66
78314;SPS30;68596;52.080;4.662;2023-07-13T03:34:24;4.86;4.46;3.73;2.66;21.35;21.31;21.12;20.12;16.05;0.67
78314;SPS30;68596;52.080;4.662;2023-07-13T03:37:09;4.54;4.21;3.60;2.69;21.62;21.58;21.43;20.60;16.70;0.63
78314;SPS30;68596;52.080;4.662;2023-07-13T03:39:53;4.91;4.52;3.81;2.76;22.19;22.15;21.97;21.00;16.85;0.64
78314;SPS30;68596;52.080;4.662;2023-07-13T03:42:37;5.42;4.94;4.06;2.79;22.47;22.41;22.19;21.00;16.53;0.68
78314;SPS30;68596;52.080;4.662;2023-07-13T03:45:22;5.16;4.68;3.80;2.56;20.57;20.52;20.30;19.12;14.91;0.69
78314;SPS30;68596;52.080;4.662;2023-07-13T03:48:06;5.97;5.40;4.37;2.92;23.46;23.39;23.14;21.75;16.89;0.71
78314;SPS30;68596;52.080;4.662;2023-07-13T03:50:50;6.17;5.58;4.49;2.95;23.74;23.67;23.40;21.94;16.94;0.70
78314;SPS30;68596;52.080;4.662;2023-07-13T03:53:37;5.75;5.22;4.26;2.88;23.16;23.10;22.86;21.56;16.85;0.68
78314;SPS30;68596;52.080;4.662;2023-07-13T03:56:23;6.36;5.75;4.64;3.06;24.66;24.59;24.32;22.82;17.66;0.70
78314;SPS30;68596;52.080;4.662;2023-07-13T03:59:07;6.93;6.35;5.28;3.74;30.02;29.95;29.69;28.24;22.45;0.65
78314;SPS30;68596;52.080;4.662;2023-07-13T04:01:51;5.90;5.40;4.48;3.15;25.32;25.26;25.03;23.78;18.86;0.66
78314;SPS30;68596;52.080;4.662;2023-07-13T04:04:35;6.10;5.53;4.50;3.04;24.43;24.37;24.11;22.72;17.73;0.68
78314;SPS30;68596;52.080;4.662;2023-07-13T04:07:20;7.10;6.40;5.13;3.34;26.89;26.81;26.50;24.78;19.06;0.69
78314;SPS30;68596;52.080;4.662;2023-07-13T04:10:04;6.58;5.92;4.73;3.06;24.67;24.60;24.30;22.70;17.41;0.69
78314;SPS30;68596;52.080;4.662;2023-07-13T04:12:48;6.05;5.46;4.40;2.90;23.35;23.29;23.02;21.59;16.69;0.69
78314;SPS30;68596;52.080;4.662;2023-07-13T04:15:32;6.43;5.84;4.76;3.22;25.93;25.86;25.60;24.14;18.87;0.68
78314;SPS30;68596;52.080;4.662;2023-07-13T04:18:16;6.44;5.85;4.77;3.23;25.99;25.93;25.66;24.20;18.92;0.67
78314;SPS30;68596;52.080;4.662;2023-07-13T04:21:01;6.82;6.18;5.01;3.35;26.99;26.91;26.62;25.05;19.49;0.68
78314;SPS30;68596;52.080;4.662;2023-07-13T04:23:46;5.85;5.32;4.37;3.01;24.19;24.13;23.89;22.60;17.78;0.67
78314;SPS30;68596;52.080;4.662;2023-07-13T04:26:31;5.67;5.19;4.30;3.02;24.26;24.21;23.98;22.78;18.06;0.64
78314;SPS30;68596;52.080;4.662;2023-07-13T04:29:16;5.89;5.36;4.40;3.02;24.31;24.25;24.01;22.71;17.85;0.66
78314;SPS30;68596;52.080;4.662;2023-07-13T04:32:00;5.88;5.33;4.34;2.92;23.50;23.44;23.19;21.85;17.05;0.67
78314;SPS30;68596;52.080;4.662;2023-07-13T04:34:45;6.13;5.58;4.59;3.16;25.38;25.32;25.07;23.72;18.66;0.67
78314;SPS30;68596;52.080;4.662;2023-07-13T04:37:29;5.58;5.04;4.08;2.71;21.82;21.76;21.52;20.21;15.68;0.69
78314;SPS30;68596;52.080;4.662;2023-07-13T04:40:14;5.57;5.06;4.13;2.80;22.53;22.48;22.25;20.99;16.42;0.67
78314;SPS30;68596;52.080;4.662;2023-07-13T04:42:58;6.09;5.52;4.49;3.03;24.33;24.27;24.01;22.62;17.65;0.69
78314;SPS30;68596;52.080;4.662;2023-07-13T04:45:42;5.45;4.96;4.07;2.80;22.48;22.42;22.20;21.00;16.50;0.68
78314;SPS30;68596;52.080;4.662;2023-07-13T04:48:27;5.03;4.62;3.88;2.79;22.43;22.38;22.20;21.18;16.95;0.65
78314;SPS30;68596;52.080;4.662;2023-07-13T04:51:11;5.20;4.82;4.13;3.08;24.74;24.69;24.52;23.56;19.11;0.64
78314;SPS30;68596;52.080;4.662;2023-07-13T04:53:55;5.45;5.02;4.24;3.08;24.74;24.69;24.50;23.43;18.81;0.64
78314;SPS30;68596;52.080;4.662;2023-07-13T04:56:39;4.72;4.38;3.77;2.83;22.72;22.68;22.53;21.67;17.61;0.62
78314;SPS30;68596;52.080;4.662;2023-07-13T04:59:23;5.05;4.74;4.17;3.27;26.22;26.18;26.04;25.24;20.79;0.58
78314;SPS30;68596;52.080;4.662;2023-07-13T05:02:07;4.73;4.41;3.82;2.92;23.39;23.35;23.20;22.38;18.28;0.61
78314;SPS30;68596;52.080;4.662;2023-07-13T05:04:51;5.29;4.88;4.13;3.02;24.23;24.19;24.00;22.97;18.48;0.64
78314;SPS30;68596;52.080;4.662;2023-07-13T05:07:35;5.40;4.96;4.16;2.98;23.96;23.91;23.71;22.61;18.07;0.64
78314;SPS30;68596;52.080;4.662;2023-07-13T05:10:19;5.11;4.68;3.91;2.78;22.30;22.25;22.06;21.00;16.73;0.65
78314;SPS30;68596;52.080;4.662;2023-07-13T05:13:05;5.16;4.73;3.96;2.83;22.76;22.71;22.51;21.46;17.13;0.63
78314;SPS30;68596;52.080;4.662;2023-07-13T05:15:56;4.47;4.12;3.47;2.52;20.24;20.19;20.03;19.15;15.37;0.63
78314;SPS30;68596;52.080;4.662;2023-07-13T05:18:43;4.85;4.48;3.79;2.77;22.27;22.23;22.05;21.11;16.99;0.64
78314;SPS30;68596;52.080;4.662;2023-07-13T05:21:27;5.33;4.91;4.16;3.04;24.39;24.35;24.16;23.12;18.60;0.64
78314;SPS30;68596;52.080;4.662;2023-07-13T05:24:11;5.05;4.67;3.98;2.94;23.62;23.57;23.40;22.45;18.13;0.64
78314;SPS30;68596;52.080;4.662;2023-07-13T05:26:56;4.50;4.16;3.55;2.62;21.04;21.00;20.85;20.00;16.16;0.64
78314;SPS30;68596;52.080;4.662;2023-07-13T05:29:40;4.19;3.90;3.38;2.57;20.63;20.60;20.46;19.73;16.10;0.61
78314;SPS30;68596;52.080;4.662;2023-07-13T05:32:24;4.74;4.40;3.77;2.81;22.57;22.53;22.37;21.50;17.43;0.63
78314;SPS30;68596;52.080;4.662;2023-07-13T05:35:08;4.63;4.28;3.66;2.72;21.81;21.77;21.62;20.75;16.80;0.62
78314;SPS30;68596;52.080;4.662;2023-07-13T05:37:52;4.76;4.40;3.73;2.74;21.99;21.95;21.79;20.87;16.82;0.62
78314;SPS30;68596;52.080;4.662;2023-07-13T05:40:37;4.92;4.55;3.88;2.87;23.03;22.99;22.82;21.89;17.69;0.62
78314;SPS30;68596;52.080;4.662;2023-07-13T05:43:21;4.68;4.38;3.82;2.95;23.64;23.61;23.46;22.68;18.59;0.60
78314;SPS30;68596;52.080;4.662;2023-07-13T05:46:06;4.34;4.11;3.70;3.00;24.06;24.03;23.93;23.33;19.42;0.57
78314;SPS30;68596;52.080;4.662;2023-07-13T05:48:50;3.65;3.48;3.16;2.61;20.86;20.84;20.75;20.29;16.97;0.56
78314;SPS30;68596;52.080;4.662;2023-07-13T05:51:35;4.20;3.98;3.60;2.95;23.59;23.57;23.47;22.91;19.12;0.57
78314;SPS30;68596;52.080;4.662;2023-07-13T05:54:19;3.58;3.43;3.17;2.68;21.46;21.44;21.37;20.97;17.67;0.54
78314;SPS30;68596;52.080;4.662;2023-07-13T05:57:03;3.58;3.45;3.20;2.74;21.90;21.88;21.81;21.44;18.11;0.53
78314;SPS30;68596;52.080;4.662;2023-07-13T05:59:47;3.38;3.26;3.05;2.63;21.02;21.00;20.94;20.61;17.45;0.52
78314;SPS30;68596;52.080;4.662;2023-07-13T06:02:32;3.43;3.31;3.10;2.68;21.47;21.45;21.40;21.07;17.85;0.53
78314;SPS30;68596;52.080;4.662;2023-07-13T06:05:16;3.11;3.00;2.81;2.43;19.44;19.42;19.37;19.07;16.16;0.52
78314;SPS30;68596;52.080;4.662;2023-07-13T06:08:00;3.28;3.19;3.01;2.65;21.17;21.15;21.10;20.83;17.72;0.50
78314;SPS30;68596;52.080;4.662;2023-07-13T06:10:45;2.96;2.89;2.75;2.44;19.49;19.47;19.43;19.20;16.38;0.51
78314;SPS30;68596;52.080;4.662;2023-07-13T06:13:30;3.42;3.33;3.16;2.79;22.31;22.29;22.25;21.97;18.72;0.52
78314;SPS30;68596;52.080;4.662;2023-07-13T06:16:16;3.29;3.20;3.04;2.69;21.53;21.52;21.48;21.22;18.09;0.52
78314;SPS30;68596;52.080;4.662;2023-07-13T06:19:01;3.44;3.36;3.21;2.86;22.89;22.88;22.83;22.58;19.29;0.50
78314;SPS30;68596;52.080;4.662;2023-07-13T06:21:46;3.02;2.97;2.88;2.62;20.93;20.92;20.89;20.73;17.79;0.49
78314;SPS30;68596;52.080;4.662;2023-07-13T06:24:30;2.99;2.94;2.84;2.56;20.48;20.47;20.44;20.26;17.36;0.50
78314;SPS30;68596;52.080;4.662;2023-07-13T06:27:14;2.95;2.90;2.81;2.55;20.38;20.37;20.34;20.17;17.31;0.48
78314;SPS30;68596;52.080;4.662;2023-07-13T06:30:00;3.20;3.13;3.02;2.72;21.71;21.70;21.66;21.46;18.37;0.49
78314;SPS30;68596;52.080;4.662;2023-07-13T06:32:44;2.70;2.65;2.56;2.32;18.54;18.53;18.51;18.35;15.73;0.51
78314;SPS30;68596;52.080;4.662;2023-07-13T06:35:30;2.88;2.84;2.76;2.52;20.14;20.14;20.11;19.96;17.15;0.52
78314;SPS30;68596;52.080;4.662;2023-07-13T06:38:14;2.97;2.92;2.83;2.57;20.54;20.54;20.51;20.34;17.45;0.52
78314;SPS30;68596;52.080;4.662;2023-07-13T06:40:58;3.08;3.03;2.94;2.68;21.44;21.43;21.40;21.23;18.23;0.51
78314;SPS30;68596;52.080;4.662;2023-07-13T06:43:42;3.14;3.08;2.98;2.70;21.55;21.54;21.50;21.32;18.27;0.51
78314;SPS30;68596;52.080;4.662;2023-07-13T06:46:28;2.89;2.84;2.75;2.49;19.94;19.93;19.90;19.73;16.92;0.49
78314;SPS30;68596;52.080;4.662;2023-07-13T06:49:13;2.84;2.79;2.69;2.42;19.36;19.34;19.31;19.13;16.39;0.51
78314;SPS30;68596;52.080;4.662;2023-07-13T06:51:57;3.15;3.09;2.97;2.68;21.41;21.40;21.36;21.16;18.12;0.51
78314;SPS30;68596;52.080;4.662;2023-07-13T06:54:41;2.96;2.89;2.77;2.47;19.73;19.71;19.68;19.47;16.63;0.51
78314;SPS30;68596;52.080;4.662;2023-07-13T06:57:25;2.91;2.84;2.71;2.42;19.32;19.31;19.28;19.07;16.28;0.50
78314;SPS30;68596;52.080;4.662;2023-07-13T07:00:10;2.83;2.76;2.63;2.33;18.66;18.65;18.62;18.40;15.70;0.50
78314;SPS30;68596;52.080;4.662;2023-07-13T07:02:55;3.11;3.03;2.88;2.55;20.42;20.40;20.36;20.12;17.16;0.51
78314;SPS30;68596;52.080;4.662;2023-07-13T07:05:40;3.10;3.02;2.88;2.55;20.38;20.37;20.33;20.09;17.13;0.51
78314;SPS30;68596;52.080;4.662;2023-07-13T07:08:25;2.90;2.83;2.72;2.44;19.47;19.46;19.43;19.23;16.45;0.51
78314;SPS30;68596;52.080;4.662;2023-07-13T07:11:11;3.14;3.06;2.92;2.59;20.73;20.71;20.67;20.44;17.44;0.52
78314;SPS30;68596;52.080;4.662;2023-07-13T07:13:57;3.13;3.05;2.91;2.58;20.64;20.63;20.58;20.35;17.36;0.52
78314;SPS30;68596;52.080;4.662;2023-07-13T07:16:41;3.09;3.02;2.89;2.58;20.61;20.59;20.56;20.34;17.37;0.50
78314;SPS30;68596;52.080;4.662;2023-07-13T07:19:25;3.13;3.08;2.98;2.71;21.63;21.62;21.59;21.41;18.37;0.49
78314;SPS30;68596;52.080;4.662;2023-07-13T07:22:09;3.35;3.28;3.14;2.80;22.42;22.41;22.37;22.13;18.91;0.49
78314;SPS30;68596;52.080;4.662;2023-07-13T07:24:53;2.73;2.67;2.57;2.31;18.46;18.45;18.42;18.24;15.61;0.49
78314;SPS30;68596;52.080;4.662;2023-07-13T07:27:37;2.79;2.73;2.63;2.36;18.87;18.86;18.83;18.65;15.96;0.50
78314;SPS30;68596;52.080;4.662;2023-07-13T07:30:22;3.28;3.22;3.11;2.82;22.53;22.51;22.48;22.29;19.11;0.49
78314;SPS30;68596;52.080;4.662;2023-07-13T07:33:06;2.70;2.66;2.59;2.35;18.82;18.81;18.78;18.64;16.00;0.48
78314;SPS30;68596;52.080;4.662;2023-07-13T07:35:50;2.94;2.90;2.82;2.57;20.54;20.53;20.50;20.35;17.48;0.48
78314;SPS30;68596;52.080;4.662;2023-07-13T07:38:35;2.83;2.81;2.76;2.56;20.45;20.44;20.43;20.32;17.52;0.46
78314;SPS30;68596;52.080;4.662;2023-07-13T07:41:19;3.17;3.13;3.06;2.80;22.40;22.39;22.37;22.22;19.11;0.48
78314;SPS30;68596;52.080;4.662;2023-07-13T07:44:04;2.98;2.93;2.83;2.56;20.47;20.46;20.43;20.25;17.37;0.49
78314;SPS30;68596;52.080;4.662;2023-07-13T07:46:51;2.86;2.83;2.76;2.52;20.16;20.15;20.13;19.99;17.18;0.48
78314;SPS30;68596;52.080;4.662;2023-07-13T07:49:35;2.84;2.82;2.76;2.55;20.39;20.38;20.36;20.24;17.44;0.48
78314;SPS30;68596;52.080;4.662;2023-07-13T07:52:20;2.92;2.88;2.83;2.60;20.80;20.80;20.78;20.65;17.78;0.48
78314;SPS30;68596;52.080;4.662;2023-07-13T07:55:05;3.13;3.10;3.05;2.82;22.55;22.55;22.53;22.40;19.32;0.48
78314;SPS30;68596;52.080;4.662;2023-07-13T07:57:51;3.02;2.98;2.90;2.65;21.17;21.16;21.14;20.98;18.03;0.48
78314;SPS30;68596;52.080;4.662;2023-07-13T08:00:35;3.32;3.27;3.16;2.87;22.91;22.89;22.86;22.67;19.44;0.48
78314;SPS30;68596;52.080;4.662;2023-07-13T08:03:19;3.26;3.20;3.10;2.80;22.41;22.40;22.36;22.17;19.01;0.48
78314;SPS30;68596;52.080;4.662;2023-07-13T08:06:03;3.46;3.40;3.28;2.96;23.63;23.62;23.58;23.37;20.02;0.50
78314;SPS30;68596;52.080;4.662;2023-07-13T08:08:47;3.27;3.20;3.09;2.79;22.27;22.26;22.23;22.02;18.86;0.49
78314;SPS30;68596;52.080;4.662;2023-07-13T08:11:31;3.23;3.18;3.09;2.81;22.44;22.43;22.40;22.22;19.08;0.48
78314;SPS30;68596;52.080;4.662;2023-07-13T08:14:16;3.38;3.32;3.21;2.91;23.25;23.24;23.21;23.01;19.73;0.48
78314;SPS30;68596;52.080;4.662;2023-07-13T08:17:00;3.05;3.00;2.91;2.65;21.19;21.18;21.15;20.99;18.02;0.49
78314;SPS30;68596;52.080;4.662;2023-07-13T08:19:46;3.21;3.18;3.12;2.88;23.00;22.99;22.97;22.83;19.67;0.48
78314;SPS30;68596;52.080;4.662;2023-07-13T08:22:31;2.96;2.94;2.91;2.71;21.65;21.64;21.63;21.53;18.59;0.47
78314;SPS30;68596;52.080;4.662;2023-07-13T08:25:15;2.84;2.84;2.84;2.69;21.44;21.44;21.43;21.38;18.52;0.45
78314;SPS30;68596;52.080;4.662;2023-07-13T08:27:59;2.89;2.87;2.84;2.64;21.10;21.09;21.08;20.98;18.11;0.47
78314;SPS30;68596;52.080;4.662;2023-07-13T08:30:44;2.85;2.82;2.77;2.56;20.46;20.46;20.44;20.32;17.51;0.50
78314;SPS30;68596;52.080;4.662;2023-07-13T08:33:33;3.14;3.11;3.06;2.83;22.59;22.58;22.56;22.43;19.33;0.48
78314;SPS30;68596;52.080;4.662;2023-07-13T08:36:19;2.90;2.89;2.87;2.70;21.53;21.53;21.52;21.44;18.54;0.46
78314;SPS30;68596;52.080;4.662;2023-07-13T08:39:03;2.95;2.94;2.91;2.72;21.68;21.68;21.66;21.57;18.63;0.46
78314;SPS30;68596;52.080;4.662;2023-07-13T08:41:47;2.96;2.96;2.95;2.77;22.14;22.13;22.12;22.05;19.08;0.45
78314;SPS30;68596;52.080;4.662;2023-07-13T08:44:42;2.77;2.76;2.74;2.56;20.46;20.45;20.44;20.36;17.60;0.46
78314;SPS30;68596;52.080;4.662;2023-07-13T08:47:38;3.07;3.06;3.04;2.85;22.79;22.78;22.77;22.69;19.62;0.46
78314;SPS30;68596;52.080;4.662;2023-07-13T08:50:30;3.06;3.05;3.04;2.85;22.77;22.76;22.75;22.67;19.61;0.46
78314;SPS30;68596;52.080;4.662;2023-07-13T08:53:23;2.90;2.88;2.86;2.68;21.44;21.43;21.42;21.34;18.45;0.46
78314;SPS30;68596;52.080;4.662;2023-07-13T08:56:20;3.44;3.40;3.31;3.02;24.16;24.15;24.12;23.94;20.58;0.47
78314;SPS30;68596;52.080;4.662;2023-07-13T08:59:14;3.09;3.04;2.97;2.71;21.67;21.66;21.63;21.47;18.46;0.48
78314;SPS30;68596;52.080;4.662;2023-07-13T09:05:12;3.04;3.03;2.99;2.79;22.27;22.27;22.25;22.15;19.12;0.46
78314;SPS30;68596;52.080;4.662;2023-07-13T09:11:29;3.09;3.08;3.06;2.87;22.95;22.95;22.94;22.86;19.77;0.46
78314;SPS30;68596;52.080;4.662;2023-07-13T09:17:24;3.15;3.11;3.02;2.76;22.06;22.05;22.02;21.86;18.78;0.47
78314;SPS30;68596;52.080;4.662;2023-07-13T09:20:27;3.08;3.06;3.02;2.81;22.41;22.40;22.39;22.28;19.22;0.46
78314;SPS30;68596;52.080;4.662;2023-07-13T09:23:21;2.91;2.90;2.87;2.68;21.39;21.39;21.37;21.28;18.38;0.46
78314;SPS30;68596;52.080;4.662;2023-07-13T09:26:12;2.73;2.72;2.71;2.55;20.37;20.37;20.36;20.29;17.56;0.46
78314;SPS30;68596;52.080;4.662;2023-07-13T09:29:14;3.06;3.06;3.06;2.89;23.09;23.08;23.08;23.02;19.94;0.45
78314;SPS30;68596;52.080;4.662;2023-07-13T09:32:10;2.63;2.63;2.63;2.48;19.80;19.80;19.79;19.74;17.10;0.45
78314;SPS30;68596;52.080;4.662;2023-07-13T09:35:00;2.81;2.81;2.81;2.66;21.20;21.20;21.19;21.14;18.31;0.44
78314;SPS30;68596;52.080;4.662;2023-07-13T09:37:46;2.79;2.78;2.77;2.60;20.77;20.76;20.75;20.68;17.88;0.46
78314;SPS30;68596;52.080;4.662;2023-07-13T09:40:43;3.11;3.11;3.11;2.94;23.47;23.46;23.45;23.39;20.27;0.44
78314;SPS30;68596;52.080;4.662;2023-07-13T09:46:57;3.47;3.45;3.42;3.19;25.45;25.44;25.42;25.31;21.86;0.47
78314;SPS30;68596;52.080;4.662;2023-07-13T09:49:41;3.27;3.25;3.22;3.02;24.09;24.08;24.07;23.97;20.72;0.46
78314;SPS30;68596;52.080;4.662;2023-07-13T09:52:27;3.38;3.38;3.37;3.19;25.47;25.46;25.46;25.39;21.99;0.45
78314;SPS30;68596;52.080;4.662;2023-07-13T09:55:31;3.48;3.48;3.48;3.29;26.25;26.24;26.23;26.16;22.67;0.45
78314;SPS30;68596;52.080;4.662;2023-07-13T09:58:21;3.07;3.07;3.07;2.90;23.16;23.16;23.15;23.09;20.00;0.44
78314;SPS30;68596;52.080;4.662;2023-07-13T10:01:12;2.95;2.95;2.95;2.79;22.27;22.27;22.26;22.20;19.23;0.45
78314;SPS30;68596;52.080;4.662;2023-07-13T10:03:57;2.98;2.97;2.96;2.79;22.31;22.30;22.29;22.22;19.24;0.46
78314;SPS30;68596;52.080;4.662;2023-07-13T10:06:41;3.18;3.17;3.15;2.95;23.60;23.59;23.58;23.49;20.32;0.46
78314;SPS30;68596;52.080;4.662;2023-07-13T10:09:26;3.39;3.39;3.39;3.20;25.58;25.58;25.57;25.50;22.10;0.45
78314;SPS30;68596;52.080;4.662;2023-07-13T10:12:16;3.20;3.20;3.20;3.03;24.19;24.18;24.18;24.11;20.89;0.44
78314;SPS30;68596;52.080;4.662;2023-07-13T10:15:02;3.01;3.01;3.01;2.85;22.75;22.74;22.74;22.68;19.65;0.45
78314;SPS30;68596;52.080;4.662;2023-07-13T10:17:48;3.20;3.19;3.17;2.98;23.80;23.80;23.79;23.70;20.51;0.46
78314;SPS30;68596;52.080;4.662;2023-07-13T10:20:35;2.95;2.95;2.94;2.78;22.21;22.21;22.20;22.14;19.18;0.45
78314;SPS30;68596;52.080;4.662;2023-07-13T10:23:21;2.83;2.83;2.83;2.67;21.34;21.33;21.32;21.27;18.43;0.45
78314;SPS30;68596;52.080;4.662;2023-07-13T10:26:13;2.97;2.96;2.96;2.80;22.35;22.34;22.33;22.27;19.29;0.44
78314;SPS30;68596;52.080;4.662;2023-07-13T10:29:09;3.18;3.18;3.17;2.99;23.92;23.91;23.90;23.83;20.63;0.46
78314;SPS30;68596;52.080;4.662;2023-07-13T10:32:00;3.23;3.23;3.23;3.05;24.38;24.38;24.37;24.30;21.06;0.45
78314;SPS30;68596;52.080;4.662;2023-07-13T10:34:45;3.05;3.05;3.05;2.88;23.00;23.00;22.99;22.93;19.87;0.45
78314;SPS30;68596;52.080;4.662;2023-07-13T10:40:43;2.88;2.88;2.88;2.72;21.75;21.74;21.74;21.68;18.78;0.42